Time;durP1;ratioP1;P1;durP2;ratioP2;P2;SDS_P1;SDS_P2;PMS_P1;PMS_P2;Temp;Humidity;BMP_temperature;BMP_pressure;BME280_temperature;BME280_humidity;BME280_pressure;Samples;Min_cycle;Max_cycle;Signal;HPM_P1;HPM_P2
2023/10/21 00:00:22;;;;;;;0.68;0.57;;;17.40;45.30;;;;;;5909864;24;20167;-87
2023/10/21 00:02:53;;;;;;;1.55;0.55;;;17.40;45.30;;;;;;5933606;24;20155;-85
2023/10/21 00:05:43;;;;;;;1.88;0.70;;;17.40;45.30;;;;;;6024212;23;20236;-86
2023/10/21 00:08:11;;;;;;;2.00;0.80;;;17.40;45.30;;;;;;6007072;23;20498;-87
2023/10/21 00:10:39;;;;;;;1.88;0.65;;;17.40;45.30;;;;;;6009169;23;20653;-83
2023/10/21 00:13:05;;;;;;;2.40;0.60;;;17.40;45.30;;;;;;6012693;23;20154;-84
2023/10/21 00:15:31;;;;;;;2.03;0.50;;;17.40;45.40;;;;;;6036378;23;20222;-84
2023/10/21 00:18:03;;;;;;;1.02;0.70;;;17.40;45.40;;;;;;6001383;23;20263;-85
2023/10/21 00:20:38;;;;;;;2.42;0.55;;;17.40;45.30;;;;;;6012758;23;20158;-84
2023/10/21 00:23:04;;;;;;;2.10;0.60;;;17.40;45.30;;;;;;5979386;23;20253;-84
2023/10/21 00:25:30;;;;;;;1.33;0.60;;;17.40;45.40;;;;;;6012844;23;20535;-85
2023/10/21 00:28:03;;;;;;;1.13;0.60;;;17.40;45.40;;;;;;6036639;23;20190;-86
2023/10/21 00:30:33;;;;;;;1.55;0.40;;;17.40;45.40;;;;;;6043998;23;20185;-86
2023/10/21 00:33:01;;;;;;;1.73;0.65;;;17.30;45.30;;;;;;6070000;23;20141;-87
2023/10/21 00:35:32;;;;;;;1.73;0.65;;;17.40;45.40;;;;;;6102462;23;20152;-87
2023/10/21 00:37:59;;;;;;;0.47;0.43;;;17.40;45.50;;;;;;6104545;23;20602;-86
2023/10/21 00:40:25;;;;;;;1.15;0.50;;;17.40;45.40;;;;;;6129149;23;20151;-85
2023/10/21 00:42:53;;;;;;;2.05;0.60;;;17.40;45.50;;;;;;6080827;23;20219;-86
2023/10/21 00:45:19;;;;;;;1.75;0.60;;;17.40;45.60;;;;;;6032293;23;20160;-83
2023/10/21 00:48:11;;;;;;;1.52;0.52;;;17.30;45.50;;;;;;6131629;23;20202;-84
2023/10/21 00:50:41;;;;;;;2.30;0.50;;;17.40;45.60;;;;;;6098080;23;20241;-86
2023/10/21 00:53:13;;;;;;;1.67;0.40;;;17.30;45.60;;;;;;6184259;23;20135;-86
2023/10/21 00:55:59;;;;;;;0.85;0.50;;;17.30;45.50;;;;;;6133983;23;20139;-84
2023/10/21 00:58:37;;;;;;;0.85;0.60;;;17.30;45.60;;;;;;6098179;23;20152;-86
2023/10/21 01:01:06;;;;;;;1.33;0.60;;;17.30;45.60;;;;;;6050696;23;20238;-87
2023/10/21 01:03:32;;;;;;;0.98;0.60;;;17.30;45.60;;;;;;6051286;23;20611;-86
2023/10/21 01:06:04;;;;;;;4.20;0.95;;;17.40;45.60;;;;;;6050611;23;20155;-84
2023/10/21 01:08:42;;;;;;;1.65;0.70;;;17.40;45.60;;;;;;6040235;23;20529;-87
2023/10/21 01:11:13;;;;;;;1.55;0.60;;;17.40;45.60;;;;;;5993854;23;20189;-84
2023/10/21 01:13:45;;;;;;;1.25;0.50;;;17.30;45.60;;;;;;6017640;23;20153;-86
2023/10/21 01:16:13;;;;;;;1.90;0.70;;;17.40;45.70;;;;;;6017690;23;20141;-85
2023/10/21 01:18:46;;;;;;;0.73;0.40;;;17.40;45.70;;;;;;6012331;23;20161;-86
2023/10/21 01:21:17;;;;;;;0.65;0.40;;;17.30;45.60;;;;;;5984090;23;20165;-86
2023/10/21 01:23:52;;;;;;;0.63;0.57;;;17.40;45.70;;;;;;6008011;23;20230;-86
2023/10/21 01:26:22;;;;;;;0.73;0.47;;;17.40;45.70;;;;;;5981531;24;20161;-87
2023/10/21 01:28:48;;;;;;;1.35;0.50;;;17.40;45.70;;;;;;5988344;23;20169;-86
2023/10/21 01:31:22;;;;;;;1.65;0.60;;;17.40;45.70;;;;;;6009660;23;20186;-85
2023/10/21 01:34:08;;;;;;;2.15;0.60;;;17.40;45.70;;;;;;6009040;23;20733;-85
2023/10/21 01:36:50;;;;;;;1.50;0.82;;;17.40;45.70;;;;;;5944238;23;20161;-85
2023/10/21 01:39:19;;;;;;;1.15;0.60;;;17.30;45.80;;;;;;5887971;24;20171;-85
2023/10/21 01:41:51;;;;;;;1.45;0.50;;;17.30;46.50;;;;;;5907838;24;20235;-85
2023/10/21 01:44:19;;;;;;;3.35;0.60;;;17.30;45.70;;;;;;5930317;24;20250;-86
2023/10/21 01:46:51;;;;;;;1.42;0.60;;;17.40;45.80;;;;;;5849175;24;20201;-87
2023/10/21 01:49:19;;;;;;;2.63;0.60;;;17.30;45.80;;;;;;5849096;24;20237;-85
2023/10/21 01:51:48;;;;;;;1.05;0.50;;;17.30;45.80;;;;;;5874038;24;20215;-85
2023/10/21 01:54:16;;;;;;;0.82;0.40;;;17.30;45.80;;;;;;5925449;24;20153;-85
2023/10/21 01:57:01;;;;;;;1.30;0.70;;;17.30;45.90;;;;;;5937512;24;20211;-84
2023/10/21 01:59:39;;;;;;;1.08;0.50;;;17.30;45.90;;;;;;6007834;23;20333;-86
2023/10/21 02:02:37;;;;;;;1.23;0.60;;;17.30;45.90;;;;;;5986176;23;20233;-86
2023/10/21 02:05:07;;;;;;;2.38;0.50;;;17.30;45.90;;;;;;6009857;23;20160;-87
2023/10/21 02:07:39;;;;;;;2.08;0.60;;;17.30;45.90;;;;;;6072075;23;20231;-84
2023/10/21 02:10:17;;;;;;;1.42;0.68;;;17.30;45.90;;;;;;6048324;23;20184;-84
2023/10/21 02:12:45;;;;;;;1.10;0.65;;;17.30;46.00;;;;;;6049068;23;20339;-85
2023/10/21 02:15:17;;;;;;;1.58;0.60;;;17.30;46.00;;;;;;6042598;23;20138;-86
2023/10/21 02:17:46;;;;;;;2.65;0.60;;;17.30;46.00;;;;;;6089076;23;20154;-83
2023/10/21 02:20:14;;;;;;;1.60;0.52;;;17.30;46.00;;;;;;6111107;23;20242;-85
2023/10/21 02:22:50;;;;;;;1.63;0.50;;;17.30;46.00;;;;;;6067717;23;20217;-86
2023/10/21 02:25:29;;;;;;;1.65;0.50;;;17.30;46.70;;;;;;6044418;23;20184;-85
2023/10/21 02:28:05;;;;;;;1.45;0.60;;;17.30;46.00;;;;;;6023552;23;20247;-87
2023/10/21 02:30:44;;;;;;;2.45;0.60;;;17.30;46.00;;;;;;5986662;23;20190;-84
2023/10/21 02:33:09;;;;;;;2.05;0.50;;;17.30;46.00;;;;;;5985694;23;20161;-86
2023/10/21 02:35:46;;;;;;;1.17;0.50;;;17.20;46.00;;;;;;6028633;23;20159;-86
2023/10/21 02:38:21;;;;;;;2.00;0.50;;;17.30;46.10;;;;;;5978095;23;20155;-85
2023/10/21 02:40:49;;;;;;;0.65;0.47;;;17.30;46.10;;;;;;6009276;23;20193;-86
2023/10/21 02:43:24;;;;;;;1.00;0.50;;;17.30;46.10;;;;;;5985442;23;20190;-86
2023/10/21 02:45:50;;;;;;;1.05;0.60;;;17.30;46.10;;;;;;5952107;24;20573;-85
2023/10/21 02:48:21;;;;;;;1.75;0.52;;;17.30;46.10;;;;;;5953158;24;20167;-84
2023/10/21 02:50:50;;;;;;;1.45;0.60;;;17.30;46.10;;;;;;5952765;24;20505;-86
2023/10/21 02:53:21;;;;;;;1.60;0.60;;;17.30;46.10;;;;;;5961770;24;20456;-86
2023/10/21 02:55:55;;;;;;;1.88;0.50;;;17.30;46.20;;;;;;5994267;23;20154;-84
2023/10/21 02:58:21;;;;;;;1.52;0.60;;;17.30;46.20;;;;;;6037395;23;20150;-83
2023/10/21 03:00:48;;;;;;;0.43;0.40;;;17.30;46.20;;;;;;6037379;23;20653;-84
2023/10/21 03:03:29;;;;;;;1.30;0.70;;;17.30;46.20;;;;;;5990110;23;20162;-86
2023/10/21 03:06:05;;;;;;;0.60;0.40;;;17.20;46.10;;;;;;5993262;23;20169;-85
2023/10/21 03:08:31;;;;;;;0.98;0.50;;;17.20;46.40;;;;;;6078168;23;20219;-88
2023/10/21 03:11:05;;;;;;;2.85;0.47;;;17.30;46.20;;;;;;6070624;23;20529;-84
2023/10/21 03:13:39;;;;;;;1.83;0.50;;;17.30;46.20;;;;;;5985856;23;20464;-86
2023/10/21 03:16:17;;;;;;;0.68;0.57;;;17.20;46.10;;;;;;5987616;23;20155;-85
2023/10/21 03:18:45;;;;;;;0.60;0.47;;;17.30;46.20;;;;;;5989921;23;20534;-84
2023/10/21 03:21:13;;;;;;;1.58;0.60;;;17.30;46.20;;;;;;6013912;23;20182;-86
2023/10/21 03:23:44;;;;;;;0.88;0.70;;;17.30;46.30;;;;;;5989304;23;20194;-85
2023/10/21 03:26:22;;;;;;;1.35;0.63;;;17.20;46.20;;;;;;5984748;23;20162;-85
2023/10/21 03:28:50;;;;;;;0.80;0.60;;;17.30;46.30;;;;;;5961209;23;20162;-84
2023/10/21 03:31:22;;;;;;;1.50;0.60;;;17.30;46.20;;;;;;5982857;23;20272;-86
2023/10/21 03:34:00;;;;;;;0.93;0.55;;;17.30;46.30;;;;;;6007790;23;20182;-84
2023/10/21 03:36:29;;;;;;;2.03;0.60;;;17.30;46.20;;;;;;5929217;24;20259;-87
2023/10/21 03:38:55;;;;;;;0.85;0.50;;;17.30;46.20;;;;;;6000021;23;20158;-85
2023/10/21 03:41:25;;;;;;;0.88;0.60;;;17.30;46.30;;;;;;5985172;23;20249;-87
2023/10/21 03:43:53;;;;;;;2.20;0.95;;;17.30;46.30;;;;;;6019109;23;20184;-86
2023/10/21 03:46:27;;;;;;;1.02;0.60;;;17.30;46.30;;;;;;6072901;23;20287;-85
2023/10/21 03:49:05;;;;;;;1.35;0.52;;;17.30;46.30;;;;;;6070123;23;20156;-86
2023/10/21 03:51:38;;;;;;;0.40;0.40;;;17.20;46.30;;;;;;6069653;23;20192;-87
2023/10/21 03:54:04;;;;;;;1.25;0.50;;;17.30;46.40;;;;;;6069609;23;20268;-88
2023/10/21 03:56:30;;;;;;;1.75;0.80;;;17.30;46.30;;;;;;6101804;23;20588;-85
2023/10/21 03:58:58;;;;;;;0.80;0.50;;;17.30;46.30;;;;;;6099038;23;20255;-85
2023/10/21 04:01:24;;;;;;;0.77;0.50;;;17.30;46.40;;;;;;6098915;23;20191;-87
2023/10/21 04:03:52;;;;;;;0.70;0.50;;;17.30;46.40;;;;;;6123785;23;20219;-87
2023/10/21 04:06:19;;;;;;;1.35;0.60;;;17.40;46.40;;;;;;6124717;23;20271;-86
2023/10/21 04:08:46;;;;;;;1.35;0.68;;;17.30;46.40;;;;;;6156296;23;20197;-87
2023/10/21 04:11:15;;;;;;;0.75;0.50;;;17.30;46.30;;;;;;6133967;23;20182;-86
2023/10/21 04:13:41;;;;;;;2.13;0.57;;;17.30;46.40;;;;;;6104212;23;20178;-84
2023/10/21 04:16:15;;;;;;;1.23;0.57;;;17.30;46.40;;;;;;6123375;23;20630;-87
2023/10/21 04:18:42;;;;;;;0.90;0.60;;;17.30;46.40;;;;;;6095858;23;20703;-85
2023/10/21 04:21:10;;;;;;;1.23;0.40;;;17.30;46.40;;;;;;6103725;23;20160;-86
2023/10/21 04:23:41;;;;;;;0.90;0.50;;;17.30;46.40;;;;;;6123973;23;20183;-84
2023/10/21 04:26:09;;;;;;;1.17;0.50;;;17.30;46.50;;;;;;6152858;23;20535;-88
2023/10/21 04:28:36;;;;;;;2.25;0.50;;;17.30;46.40;;;;;;6075208;23;20710;-85
2023/10/21 04:31:02;;;;;;;1.35;0.50;;;17.20;46.40;;;;;;6050398;23;20199;-86
2023/10/21 04:33:29;;;;;;;0.82;0.55;;;17.30;46.40;;;;;;6122354;23;20282;-85
2023/10/21 04:36:02;;;;;;;0.98;0.45;;;17.30;46.40;;;;;;6079151;23;20206;-84
2023/10/21 04:38:31;;;;;;;0.50;0.40;;;17.30;46.50;;;;;;6121648;23;20247;-86
2023/10/21 04:40:59;;;;;;;1.63;0.65;;;17.30;46.50;;;;;;6092919;23;20194;-86
2023/10/21 04:43:31;;;;;;;1.13;0.50;;;17.30;46.40;;;;;;6098365;23;20148;-86
2023/10/21 04:45:59;;;;;;;0.50;0.50;;;17.30;46.50;;;;;;6110392;23;20163;-85
2023/10/21 04:48:28;;;;;;;0.80;0.60;;;17.30;46.50;;;;;;6098997;23;20243;-84
2023/10/21 04:50:56;;;;;;;0.95;0.60;;;17.30;46.50;;;;;;6074648;23;20180;-87
2023/10/21 04:53:24;;;;;;;1.35;0.63;;;17.30;46.50;;;;;;6016829;23;20153;-87
2023/10/21 04:55:54;;;;;;;1.42;0.50;;;17.20;46.50;;;;;;5992895;23;20221;-86
2023/10/21 04:58:20;;;;;;;0.95;0.60;;;17.30;46.50;;;;;;5970135;23;20576;-84
2023/10/21 05:00:49;;;;;;;0.47;0.45;;;17.30;46.50;;;;;;6015254;23;20185;-84
2023/10/21 05:03:17;;;;;;;0.98;0.70;;;17.20;46.40;;;;;;6041083;23;20520;-87
2023/10/21 05:05:48;;;;;;;1.27;0.65;;;17.30;46.50;;;;;;6018038;23;20181;-84
2023/10/21 05:08:17;;;;;;;2.55;0.50;;;17.30;46.50;;;;;;5956094;24;20167;-84
2023/10/21 05:10:46;;;;;;;1.02;0.52;;;17.20;46.50;;;;;;5993483;23;20190;-84
2023/10/21 05:13:25;;;;;;;0.90;0.57;;;17.20;46.50;;;;;;6007334;23;20162;-85
2023/10/21 05:15:51;;;;;;;0.65;0.40;;;17.20;46.60;;;;;;5984934;23;20157;-85
2023/10/21 05:18:38;;;;;;;0.68;0.52;;;17.20;46.50;;;;;;5984600;23;20159;-85
2023/10/21 05:21:07;;;;;;;1.20;0.60;;;17.30;46.60;;;;;;5984562;23;20158;-84
2023/10/21 05:23:36;;;;;;;1.05;0.60;;;17.30;46.60;;;;;;5994286;23;20263;-84
2023/10/21 05:26:05;;;;;;;1.48;0.60;;;17.20;46.60;;;;;;6017340;23;20153;-83
2023/10/21 05:28:31;;;;;;;0.50;0.50;;;17.30;46.60;;;;;;5990270;23;20158;-87
2023/10/21 05:30:58;;;;;;;0.90;0.60;;;17.30;46.60;;;;;;6029261;23;20260;-86
2023/10/21 05:33:30;;;;;;;0.95;0.55;;;17.30;46.60;;;;;;6072890;23;20144;-85
2023/10/21 05:36:00;;;;;;;0.52;0.40;;;17.20;46.60;;;;;;6026487;23;20244;-84
2023/10/21 05:38:26;;;;;;;1.08;0.50;;;17.20;46.60;;;;;;6074207;23;20152;-84
2023/10/21 05:40:52;;;;;;;0.88;0.52;;;17.20;46.60;;;;;;6073780;23;20160;-86
2023/10/21 05:43:21;;;;;;;0.93;0.60;;;17.30;46.60;;;;;;6056217;23;20156;-85
2023/10/21 05:45:47;;;;;;;2.45;0.65;;;17.30;46.60;;;;;;6157177;23;20190;-87
2023/10/21 05:48:13;;;;;;;0.90;0.60;;;17.30;46.60;;;;;;6133940;23;20131;-85
2023/10/21 05:50:39;;;;;;;0.93;0.50;;;17.30;46.60;;;;;;6134588;23;20210;-84
2023/10/21 05:53:06;;;;;;;2.03;0.60;;;17.20;46.60;;;;;;6098261;23;20152;-87
2023/10/21 05:55:42;;;;;;;1.00;0.50;;;17.30;46.70;;;;;;6074751;23;20156;-83
2023/10/21 05:58:09;;;;;;;1.65;0.57;;;17.30;46.70;;;;;;5999255;23;20534;-83
2023/10/21 06:00:36;;;;;;;1.67;0.60;;;17.20;46.60;;;;;;6071374;23;20163;-86
2023/10/21 06:03:08;;;;;;;0.80;0.43;;;17.30;46.70;;;;;;6077157;23;20604;-84
2023/10/21 06:05:33;;;;;;;1.67;0.60;;;17.20;46.70;;;;;;6050926;23;20157;-86
2023/10/21 06:07:59;;;;;;;0.70;0.50;;;17.20;46.70;;;;;;6101316;23;20156;-85
2023/10/21 06:10:25;;;;;;;0.90;0.60;;;17.20;46.70;;;;;;6076090;23;20544;-86
2023/10/21 06:12:52;;;;;;;0.55;0.32;;;17.20;46.70;;;;;;6078981;23;20159;-85
2023/10/21 06:15:18;;;;;;;1.33;0.60;;;17.20;46.70;;;;;;6077737;23;20572;-88
2023/10/21 06:17:45;;;;;;;0.60;0.43;;;17.30;46.70;;;;;;6078545;23;20152;-87
2023/10/21 06:20:13;;;;;;;1.27;0.40;;;17.20;46.70;;;;;;6077105;23;20618;-84
2023/10/21 06:22:49;;;;;;;0.80;0.50;;;17.30;46.70;;;;;;6077029;23;20152;-84
2023/10/21 06:25:15;;;;;;;0.70;0.60;;;17.20;46.60;;;;;;6111427;23;20590;-87
2023/10/21 06:27:42;;;;;;;0.45;0.40;;;17.20;46.70;;;;;;6136944;23;20261;-86
2023/10/21 06:30:15;;;;;;;1.05;0.60;;;17.30;46.70;;;;;;6131179;23;20734;-87
2023/10/21 06:32:44;;;;;;;0.60;0.40;;;17.20;46.70;;;;;;6068416;23;20288;-88
2023/10/21 06:35:13;;;;;;;0.38;0.32;;;17.30;46.70;;;;;;6062555;23;20149;-88
2023/10/21 06:37:39;;;;;;;0.85;0.50;;;17.30;46.70;;;;;;6121800;23;20136;-88
2023/10/21 06:40:06;;;;;;;0.63;0.52;;;17.20;46.60;;;;;;6053103;23;20204;-89
2023/10/21 06:42:33;;;;;;;0.45;0.40;;;17.30;46.60;;;;;;6072240;23;20636;-89
2023/10/21 06:44:59;;;;;;;0.40;0.40;;;17.30;46.50;;;;;;6076205;23;20164;-88
2023/10/21 06:47:25;;;;;;;0.63;0.50;;;17.30;46.30;;;;;;6047691;23;20219;-87
2023/10/21 06:49:50;;;;;;;0.40;0.40;;;17.40;46.10;;;;;;6123184;23;20146;-84
2023/10/21 06:52:23;;;;;;;1.17;0.50;;;17.40;46.00;;;;;;6053161;23;20225;-84
2023/10/21 06:54:50;;;;;;;4.85;0.50;;;17.40;45.80;;;;;;6102443;23;20201;-87
2023/10/21 06:57:20;;;;;;;5.57;0.70;;;17.50;45.70;;;;;;6135938;23;20185;-84
2023/10/21 06:59:48;;;;;;;0.82;0.32;;;17.50;45.60;;;;;;6136644;23;20135;-87
2023/10/21 07:02:14;;;;;;;1.08;0.50;;;17.50;45.40;;;;;;6137444;23;20131;-84
2023/10/21 07:04:40;;;;;;;0.40;0.40;;;17.50;45.40;;;;;;6110351;23;20139;-85
2023/10/21 07:07:07;;;;;;;1.15;0.47;;;17.50;45.40;;;;;;6107872;23;20140;-84
2023/10/21 07:09:34;;;;;;;0.95;0.40;;;17.50;45.30;;;;;;6128452;23;20159;-87
2023/10/21 07:12:00;;;;;;;1.50;0.40;;;17.50;45.20;;;;;;6138657;23;20193;-84
2023/10/21 07:14:27;;;;;;;4.22;0.50;;;17.50;45.10;;;;;;6107646;23;20136;-86
2023/10/21 07:17:00;;;;;;;0.43;0.40;;;17.50;45.10;;;;;;6160961;23;20146;-88
2023/10/21 07:19:26;;;;;;;1.67;0.40;;;17.50;45.00;;;;;;6160917;23;20143;-87
2023/10/21 07:21:54;;;;;;;1.83;0.60;;;17.50;44.90;;;;;;6135539;23;20150;-83
2023/10/21 07:24:20;;;;;;;0.30;0.30;;;17.50;44.80;;;;;;6130530;23;20139;-85
2023/10/21 07:26:45;;;;;;;0.50;0.25;;;17.50;44.80;;;;;;6132618;23;20163;-84
2023/10/21 07:29:11;;;;;;;0.55;0.40;;;17.50;44.70;;;;;;6106013;23;20154;-85
2023/10/21 07:31:38;;;;;;;1.80;0.43;;;17.60;44.70;;;;;;6151886;23;20175;-86
2023/10/21 07:34:03;;;;;;;0.55;0.40;;;17.50;44.60;;;;;;6135614;23;20230;-83
2023/10/21 07:36:30;;;;;;;0.40;0.40;;;17.60;44.60;;;;;;6160558;23;20175;-85
2023/10/21 07:39:01;;;;;;;1.00;0.50;;;17.60;44.60;;;;;;6111119;23;20218;-86
2023/10/21 07:41:26;;;;;;;0.52;0.40;;;17.50;44.50;;;;;;6057304;23;20155;-86
2023/10/21 07:43:52;;;;;;;0.50;0.50;;;17.60;44.50;;;;;;6158338;23;20175;-86
2023/10/21 07:46:19;;;;;;;0.40;0.40;;;17.50;45.10;;;;;;6105907;23;20199;-85
2023/10/21 07:48:45;;;;;;;0.93;0.40;;;17.50;44.40;;;;;;6081970;23;20156;-84
2023/10/21 07:51:11;;;;;;;1.35;0.57;;;17.60;44.40;;;;;;6161228;23;20181;-86
2023/10/21 07:53:38;;;;;;;1.00;0.47;;;17.50;44.40;;;;;;6150473;23;20146;-86
2023/10/21 07:56:05;;;;;;;0.57;0.40;;;17.50;44.30;;;;;;6125192;23;20207;-83
2023/10/21 07:58:38;;;;;;;0.55;0.38;;;17.50;44.40;;;;;;6119483;23;20155;-85
2023/10/21 08:01:14;;;;;;;1.92;0.60;;;17.50;44.40;;;;;;6112769;23;20180;-83
2023/10/21 08:03:44;;;;;;;0.30;0.30;;;17.50;44.50;;;;;;6110676;23;20168;-86
2023/10/21 08:06:14;;;;;;;0.70;0.40;;;17.50;44.50;;;;;;6058945;23;20183;-83
2023/10/21 08:08:42;;;;;;;0.60;0.40;;;17.50;44.70;;;;;;6058164;23;20161;-87
2023/10/21 08:11:08;;;;;;;0.75;0.60;;;17.50;44.80;;;;;;6037245;23;20215;-85
2023/10/21 08:13:36;;;;;;;1.23;0.40;;;17.50;44.70;;;;;;6097662;23;20165;-84
2023/10/21 08:16:04;;;;;;;0.90;0.30;;;17.50;44.60;;;;;;6009534;23;20154;-86
2023/10/21 08:18:32;;;;;;;0.70;0.50;;;17.50;44.40;;;;;;6022635;23;20209;-83
2023/10/21 08:20:57;;;;;;;0.90;0.38;;;17.50;44.50;;;;;;6044279;23;20638;-86
2023/10/21 08:23:24;;;;;;;2.05;0.38;;;17.50;44.90;;;;;;6045922;23;20241;-84
2023/10/21 08:25:49;;;;;;;0.68;0.40;;;17.60;44.90;;;;;;6079518;23;20235;-82
2023/10/21 08:28:15;;;;;;;0.95;0.50;;;17.60;44.90;;;;;;6052955;23;20172;-82
2023/10/21 08:30:42;;;;;;;1.80;0.50;;;17.60;45.00;;;;;;6051770;23;20188;-83
2023/10/21 08:33:18;;;;;;;1.30;0.45;;;17.70;45.00;;;;;;6080498;23;20151;-85
2023/10/21 08:35:46;;;;;;;0.77;0.43;;;17.70;44.60;;;;;;6035912;23;20156;-86
2023/10/21 08:38:13;;;;;;;2.10;0.50;;;17.70;44.60;;;;;;6108342;23;20155;-83
2023/10/21 08:40:41;;;;;;;1.60;0.47;;;17.70;44.50;;;;;;6059566;23;20227;-83
2023/10/21 08:43:08;;;;;;;2.78;0.60;;;17.70;44.70;;;;;;6057480;23;20152;-85
2023/10/21 08:45:45;;;;;;;1.67;0.32;;;17.70;44.70;;;;;;6082235;23;20271;-84
2023/10/21 08:48:12;;;;;;;15.30;1.35;;;17.70;44.60;;;;;;5993546;23;20173;-83
2023/10/21 08:50:39;;;;;;;8.20;0.93;;;17.70;44.60;;;;;;5990033;23;20194;-83
2023/10/21 08:53:09;;;;;;;10.20;0.93;;;17.70;44.80;;;;;;5991668;23;20154;-84
2023/10/21 08:55:40;;;;;;;7.72;1.08;;;17.70;44.90;;;;;;6018351;23;20160;-85
2023/10/21 08:58:06;;;;;;;14.65;1.35;;;17.80;44.90;;;;;;6015975;23;20362;-84
2023/10/21 09:00:33;;;;;;;9.93;1.23;;;17.70;44.80;;;;;;5989603;23;20180;-83
2023/10/21 09:03:01;;;;;;;18.40;1.67;;;17.70;44.80;;;;;;6014848;23;20186;-85
2023/10/21 09:05:27;;;;;;;12.00;1.27;;;17.80;45.10;;;;;;5970709;23;20197;-83
2023/10/21 09:07:53;;;;;;;12.90;1.15;;;17.90;45.10;;;;;;5994538;23;20155;-87
2023/10/21 09:10:20;;;;;;;14.68;1.50;;;17.80;45.10;;;;;;5969389;23;20245;-85
2023/10/21 09:12:46;;;;;;;9.25;1.13;;;17.80;45.20;;;;;;5992277;23;20578;-83
2023/10/21 09:15:19;;;;;;;19.55;1.42;;;17.80;45.20;;;;;;5990144;23;20139;-86
2023/10/21 09:17:45;;;;;;;25.27;2.13;;;17.80;45.10;;;;;;5923862;23;20162;-85
2023/10/21 09:20:13;;;;;;;24.95;2.17;;;17.80;45.20;;;;;;6023470;23;20153;-84
2023/10/21 09:22:45;;;;;;;19.73;1.75;;;17.80;45.40;;;;;;6002370;23;20453;-83
2023/10/21 09:25:18;;;;;;;25.63;2.00;;;17.70;45.30;;;;;;6026868;23;20142;-85
2023/10/21 09:28:30;;;;;;;22.05;2.10;;;17.70;45.40;;;;;;6003043;23;20161;-84
2023/10/21 09:30:58;;;;;;;15.25;1.80;;;17.70;45.60;;;;;;6058268;23;20173;-84
2023/10/21 09:33:37;;;;;;;20.30;1.90;;;17.60;45.80;;;;;;6049203;23;20151;-84
2023/10/21 09:36:09;;;;;;;17.00;1.80;;;17.70;45.90;;;;;;6065947;23;20147;-86
2023/10/21 09:38:37;;;;;;;20.10;2.03;;;17.70;45.80;;;;;;6090023;23;20147;-84
2023/10/21 09:41:27;;;;;;;7.13;1.25;;;17.70;45.90;;;;;;6117165;23;20136;-85
2023/10/21 09:43:57;;;;;;;6.45;1.20;;;17.70;45.80;;;;;;6026658;23;20554;-83
2023/10/21 09:46:33;;;;;;;8.73;1.05;;;17.70;45.80;;;;;;6008076;23;20196;-84
2023/10/21 09:49:27;;;;;;;11.93;1.23;;;17.70;45.80;;;;;;6073245;23;20183;-85
2023/10/21 09:52:10;;;;;;;11.50;1.20;;;17.70;45.80;;;;;;6085992;23;20215;-83
2023/10/21 09:55:03;;;;;;;7.68;1.33;;;17.60;45.70;;;;;;6036247;23;20163;-84
2023/10/21 09:57:30;;;;;;;5.53;0.98;;;17.60;45.70;;;;;;6062762;23;20144;-86
2023/10/21 10:00:02;;;;;;;9.77;1.10;;;17.70;45.80;;;;;;6084127;23;20147;-87
2023/10/21 10:02:48;;;;;;;12.27;1.17;;;17.70;45.90;;;;;;6081858;23;20148;-84
2023/10/21 10:05:20;;;;;;;16.70;1.75;;;17.70;46.00;;;;;;6062708;23;20155;-83
2023/10/21 10:07:46;;;;;;;11.65;1.40;;;17.70;46.00;;;;;;6056331;23;20231;-85
2023/10/21 10:10:22;;;;;;;11.07;1.27;;;17.70;46.00;;;;;;6019711;23;20204;-87
2023/10/21 10:13:02;;;;;;;11.50;1.38;;;17.70;46.00;;;;;;6023068;23;20175;-83
2023/10/21 10:15:31;;;;;;;12.50;1.55;;;17.60;46.10;;;;;;6044660;23;20663;-84
2023/10/21 10:18:05;;;;;;;13.70;1.58;;;17.70;46.20;;;;;;6021103;23;20153;-85
2023/10/21 10:20:31;;;;;;;10.27;1.58;;;17.70;46.20;;;;;;6021686;23;20167;-84
2023/10/21 10:23:07;;;;;;;10.40;1.15;;;17.80;46.30;;;;;;6063217;23;20220;-83
2023/10/21 10:25:46;;;;;;;8.18;1.00;;;17.60;46.30;;;;;;6047991;23;20177;-88
2023/10/21 10:28:21;;;;;;;7.70;1.25;;;17.70;46.40;;;;;;6074847;23;20160;-86
2023/10/21 10:30:50;;;;;;;10.98;1.20;;;17.70;46.50;;;;;;6098353;23;20219;-85
2023/10/21 10:33:26;;;;;;;13.77;1.50;;;17.70;46.60;;;;;;6072622;23;20155;-84
2023/10/21 10:36:00;;;;;;;12.40;1.27;;;17.70;47.30;;;;;;6053237;23;20153;-86
2023/10/21 10:38:32;;;;;;;8.18;1.33;;;17.70;46.60;;;;;;6021795;23;20153;-84
2023/10/21 10:41:07;;;;;;;9.55;1.30;;;17.70;46.60;;;;;;5996765;23;20158;-85
2023/10/21 10:43:54;;;;;;;10.30;1.20;;;17.70;46.70;;;;;;6022346;23;20153;-85
2023/10/21 10:46:21;;;;;;;9.50;1.50;;;17.70;46.70;;;;;;5978285;23;20198;-85
2023/10/21 10:48:47;;;;;;;9.05;1.40;;;17.70;46.70;;;;;;6077708;23;20149;-88
2023/10/21 10:51:17;;;;;;;13.10;1.20;;;17.60;46.70;;;;;;6049282;23;20189;-86
2023/10/21 10:53:46;;;;;;;13.55;1.33;;;17.70;46.80;;;;;;6029165;23;20161;-86
2023/10/21 10:56:18;;;;;;;9.60;1.08;;;17.70;46.80;;;;;;6026925;23;20184;-84
2023/10/21 10:58:47;;;;;;;9.40;1.30;;;17.70;46.90;;;;;;6004380;23;20149;-85
2023/10/21 11:01:21;;;;;;;5.00;0.88;;;17.70;46.90;;;;;;6049397;23;20244;-85
2023/10/21 11:04:00;;;;;;;5.07;0.85;;;17.70;46.90;;;;;;6022430;23;20158;-84
2023/10/21 11:06:35;;;;;;;8.05;1.05;;;17.70;46.90;;;;;;6022242;23;20263;-86
2023/10/21 11:09:01;;;;;;;9.05;1.30;;;17.70;46.90;;;;;;6034311;23;20219;-86
2023/10/21 11:11:53;;;;;;;6.32;0.90;;;17.80;46.90;;;;;;6068648;23;20188;-84
2023/10/21 11:14:21;;;;;;;10.32;1.00;;;17.70;46.90;;;;;;6087610;23;20334;-83
2023/10/21 11:16:49;;;;;;;4.80;1.02;;;17.70;47.00;;;;;;6080133;23;20152;-84
2023/10/21 11:19:16;;;;;;;6.35;1.00;;;17.60;47.00;;;;;;6058692;23;20235;-87
2023/10/21 11:21:48;;;;;;;4.03;0.95;;;17.60;47.00;;;;;;6119441;23;20159;-83
2023/10/21 11:24:15;;;;;;;6.40;1.20;;;17.70;47.10;;;;;;6087141;23;20165;-83
2023/10/21 11:26:41;;;;;;;4.07;0.85;;;17.70;47.10;;;;;;6112448;23;20147;-86
2023/10/21 11:29:10;;;;;;;6.35;1.15;;;17.70;47.80;;;;;;6113592;23;20603;-86
2023/10/21 11:31:36;;;;;;;4.95;0.98;;;17.70;47.10;;;;;;6134167;23;20206;-85
2023/10/21 11:34:21;;;;;;;3.40;0.88;;;17.70;47.10;;;;;;6131729;23;20132;-86
2023/10/21 11:36:49;;;;;;;5.57;0.77;;;17.70;47.10;;;;;;6157517;23;20148;-86
2023/10/21 11:39:15;;;;;;;2.88;0.70;;;17.70;47.10;;;;;;6059231;23;20159;-88
2023/10/21 11:41:45;;;;;;;2.70;0.85;;;17.70;47.20;;;;;;6111347;23;20178;-86
2023/10/21 11:44:10;;;;;;;2.60;1.08;;;17.70;47.20;;;;;;6107752;23;20601;-86
2023/10/21 11:46:37;;;;;;;5.63;0.68;;;17.70;47.20;;;;;;6134505;23;20218;-87
2023/10/21 11:49:04;;;;;;;4.22;0.95;;;17.70;47.20;;;;;;6114618;23;20155;-86
2023/10/21 11:51:31;;;;;;;6.28;0.93;;;17.70;47.10;;;;;;6141070;23;20248;-84
2023/10/21 11:53:57;;;;;;;6.50;1.05;;;17.70;47.20;;;;;;6139456;23;20146;-85
2023/10/21 12:08:11;;;;;;;4.97;0.95;;;17.80;47.30;;;;;;6188942;23;20241;-87
2023/10/21 12:10:45;;;;;;;5.15;1.13;;;17.70;47.20;;;;;;6167855;23;20189;-88
2023/10/21 12:16:03;;;;;;;3.30;0.90;;;17.70;47.20;;;;;;6145079;23;20162;-88
2023/10/21 12:18:59;;;;;;;5.60;1.10;;;17.70;47.30;;;;;;6122431;23;20609;-86
2023/10/21 12:26:57;;;;;;;2.65;0.80;;;17.70;47.30;;;;;;6143792;23;20567;-85
2023/10/21 12:30:11;;;;;;;5.97;0.90;;;17.70;47.30;;;;;;6166753;23;20157;-85
2023/10/21 12:35:11;;;;;;;4.13;0.70;;;17.70;47.30;;;;;;6145447;23;20138;-88
2023/10/21 12:37:52;;;;;;;1.63;0.50;;;17.70;47.40;;;;;;6164620;23;20523;-88
2023/10/21 12:40:30;;;;;;;3.45;0.75;;;17.70;47.40;;;;;;6143619;23;20513;-87
2023/10/21 12:45:45;;;;;;;1.85;0.77;;;17.60;47.40;;;;;;6140094;23;20137;-85
2023/10/21 12:48:18;;;;;;;3.30;0.85;;;17.70;47.40;;;;;;6131293;23;20636;-86
2023/10/21 12:50:45;;;;;;;1.65;0.73;;;17.70;47.40;;;;;;6082396;23;20179;-88
2023/10/21 12:53:12;;;;;;;1.67;0.60;;;17.50;47.30;;;;;;6105104;23;20147;-86
2023/10/21 12:55:38;;;;;;;1.55;0.70;;;17.70;47.50;;;;;;6106642;23;20131;-86
2023/10/21 12:58:05;;;;;;;2.60;0.80;;;17.60;47.40;;;;;;6079605;23;20226;-87
2023/10/21 13:00:57;;;;;;;2.35;0.80;;;17.60;47.40;;;;;;6105499;23;20148;-87
2023/10/21 13:03:22;;;;;;;2.67;0.70;;;17.70;47.60;;;;;;6104699;23;20162;-87
2023/10/21 13:09:38;;;;;;;1.60;0.90;;;17.70;47.70;;;;;;5989587;23;20159;-85
2023/10/21 13:12:46;;;;;;;4.18;0.80;;;17.80;47.80;;;;;;6008132;23;20202;-85
2023/10/21 13:15:53;;;;;;;2.90;0.70;;;17.80;47.90;;;;;;5847003;24;20163;-86
2023/10/21 13:21:16;;;;;;;;;;;;;;;;;;;;;
2023/10/21 13:24:14;;;;;;;3.38;0.60;;;17.80;48.20;;;;;;5721811;25;20289;-84
2023/10/21 13:26:42;;;;;;;3.17;0.65;;;17.80;48.00;;;;;;5669104;25;20169;-87
2023/10/21 13:29:12;;;;;;;3.78;0.90;;;17.70;47.60;;;;;;5669750;25;20167;-89
2023/10/21 13:31:39;;;;;;;4.28;0.80;;;17.80;47.70;;;;;;5691327;25;20201;-85
2023/10/21 13:34:07;;;;;;;2.25;0.90;;;17.80;47.80;;;;;;5690302;25;20162;-86
2023/10/21 13:36:33;;;;;;;3.45;0.60;;;17.80;47.80;;;;;;5657110;25;20163;-85
2023/10/21 13:39:08;;;;;;;2.72;0.73;;;17.80;47.70;;;;;;5665085;25;20183;-87